createdAt,value
2022-10-08T00:00:00.540Z,101667.41
2022-10-08T00:02:29.733Z,101716.09
2022-10-08T00:04:58.161Z,101739.66
2022-10-08T00:07:26.838Z,101749.09
2022-10-08T00:09:56.425Z,101715.19
2022-10-08T00:12:24.707Z,101700.00
2022-10-08T00:14:54.021Z,101714.91
2022-10-08T00:17:22.286Z,101781.25
2022-10-08T00:19:50.546Z,101759.97
2022-10-08T00:22:18.942Z,101778.63
2022-10-08T00:24:47.432Z,101782.16
2022-10-08T00:27:17.372Z,101749.41
2022-10-08T00:29:45.706Z,101777.84
2022-10-08T00:32:13.996Z,101776.22
2022-10-08T00:34:43.178Z,101768.81
2022-10-08T00:37:11.626Z,101783.09
2022-10-08T00:39:40.615Z,101755.50
2022-10-08T00:42:10.982Z,101728.94
2022-10-08T00:44:55.519Z,101737.81
2022-10-08T00:47:41.080Z,101721.09
2022-10-08T00:50:16.910Z,101738.81
2022-10-08T00:52:49.872Z,101771.59
2022-10-08T00:55:22.349Z,101797.97
2022-10-08T00:57:52.068Z,101753.69
2022-10-08T01:00:25.212Z,101730.69
2022-10-08T01:02:54.844Z,101789.06
2022-10-08T01:05:39.422Z,101717.31
2022-10-08T01:08:16.439Z,101710.22
2022-10-08T01:10:55.157Z,101735.13
2022-10-08T01:13:37.307Z,101768.88
2022-10-08T01:16:21.230Z,101772.22
2022-10-08T01:18:59.052Z,101709.53
2022-10-08T01:21:39.756Z,101771.44
2022-10-08T01:24:22.657Z,101759.28
2022-10-08T01:27:02.361Z,101770.59
2022-10-08T01:29:40.061Z,101767.16
2022-10-08T01:32:14.980Z,101752.09
2022-10-08T01:34:48.043Z,101733.34
2022-10-08T01:37:23.180Z,101788.16
2022-10-08T01:39:54.076Z,101752.91
2022-10-08T01:42:26.329Z,101745.69
2022-10-08T01:45:02.532Z,101795.31
2022-10-08T01:47:32.234Z,101749.47
2022-10-08T01:50:06.446Z,101777.75
2022-10-08T01:52:41.564Z,101786.31
2022-10-08T01:55:15.154Z,101792.47
2022-10-08T01:57:44.701Z,101780.28
2022-10-08T02:00:16.559Z,101732.25
2022-10-08T02:02:45.810Z,101756.91
2022-10-08T02:05:14.268Z,101788.63
2022-10-08T02:07:44.532Z,101767.97
2022-10-08T02:10:15.824Z,101764.41
2022-10-08T02:12:46.293Z,101807.53
2022-10-08T02:15:21.306Z,101782.59
2022-10-08T02:17:58.453Z,101774.56
2022-10-08T02:20:36.746Z,101771.13
2022-10-08T02:23:12.138Z,101782.66
2022-10-08T02:25:47.528Z,101806.38
2022-10-08T02:28:21.446Z,101730.25
2022-10-08T02:30:56.931Z,101807.31
2022-10-08T02:33:32.895Z,101790.47
2022-10-08T02:36:03.628Z,101790.47
2022-10-08T02:38:37.280Z,101765.63
2022-10-08T02:41:08.858Z,101804.44
2022-10-08T02:43:43.429Z,101823.03
2022-10-08T02:46:17.333Z,101818.59
2022-10-08T02:48:50.722Z,101756.56
2022-10-08T02:51:21.002Z,101816.13
2022-10-08T02:53:50.320Z,101811.72
2022-10-08T02:56:27.553Z,101811.50
2022-10-08T02:58:57.127Z,101801.91
2022-10-08T03:01:37.842Z,101775.81
2022-10-08T03:04:10.735Z,101762.47
2022-10-08T03:06:40.058Z,101808.41
2022-10-08T03:09:11.790Z,101810.88
2022-10-08T03:11:40.944Z,101808.09
2022-10-08T03:14:13.856Z,101817.03
2022-10-08T03:16:47.016Z,101759.25
2022-10-08T03:19:18.795Z,101794.81
2022-10-08T03:21:50.578Z,101792.94
2022-10-08T03:24:18.934Z,101822.22
2022-10-08T03:26:47.322Z,101805.97
2022-10-08T03:29:15.725Z,101830.50
2022-10-08T03:31:45.707Z,101748.28
2022-10-08T03:34:14.104Z,101841.88
2022-10-08T03:36:42.457Z,101833.00
2022-10-08T03:39:11.799Z,101799.09
2022-10-08T03:41:40.278Z,101847.66
2022-10-08T03:44:09.283Z,101845.94
2022-10-08T03:46:37.573Z,101828.63
2022-10-08T03:49:07.207Z,101853.69
2022-10-08T03:51:35.472Z,101859.69
2022-10-08T03:54:03.827Z,101867.59
2022-10-08T03:56:32.220Z,101795.03
2022-10-08T03:59:01.945Z,101873.81
2022-10-08T04:01:30.936Z,101880.16
2022-10-08T04:03:59.337Z,101881.59
2022-10-08T04:06:29.155Z,101876.44
2022-10-08T04:09:01.127Z,101873.00
2022-10-08T04:11:30.492Z,101881.72
2022-10-08T04:13:58.771Z,101889.41
2022-10-08T04:16:27.060Z,101827.28
2022-10-08T04:18:55.647Z,101853.13
2022-10-08T04:21:24.008Z,101889.22
2022-10-08T04:23:53.673Z,101851.47
2022-10-08T04:26:21.996Z,101885.94
2022-10-08T04:28:50.397Z,101887.69
2022-10-08T04:31:21.823Z,101883.41
2022-10-08T04:33:51.897Z,101893.84
2022-10-08T04:36:22.819Z,101868.88
2022-10-08T04:38:52.075Z,101898.03
2022-10-08T04:41:24.215Z,101902.31
2022-10-08T04:43:54.277Z,101898.78
2022-10-08T04:46:23.783Z,101889.91
2022-10-08T04:48:55.412Z,101872.94
2022-10-08T04:51:26.014Z,101911.56
2022-10-08T04:53:56.462Z,101895.41
2022-10-08T04:56:28.392Z,101917.78
2022-10-08T04:58:58.610Z,101859.69
2022-10-08T05:01:28.988Z,101927.28
2022-10-08T05:04:00.291Z,101928.19
2022-10-08T05:06:32.423Z,101940.63
2022-10-08T05:09:04.165Z,101924.75
2022-10-08T05:11:34.876Z,101907.63
2022-10-08T05:14:03.962Z,101933.47
2022-10-08T05:16:32.291Z,101907.88
2022-10-08T05:19:01.095Z,101940.03
2022-10-08T05:21:31.805Z,101947.13
2022-10-08T05:24:02.905Z,101935.50
2022-10-08T05:26:57.083Z,101935.13
2022-10-08T05:29:23.161Z,101952.31
2022-10-08T05:31:51.387Z,101951.47
2022-10-08T05:34:19.920Z,101897.19
2022-10-08T05:36:48.323Z,101942.28
2022-10-08T05:39:17.113Z,101971.22
2022-10-08T05:41:46.946Z,101923.09
2022-10-08T05:44:15.518Z,101966.94
2022-10-08T05:46:44.195Z,101975.69
2022-10-08T05:49:21.541Z,101976.19
2022-10-08T05:51:50.925Z,101983.22
2022-10-08T05:54:20.200Z,101943.31
2022-10-08T05:56:49.885Z,101990.47
2022-10-08T05:59:21.259Z,101996.19
2022-10-08T06:01:50.047Z,101992.56
2022-10-08T06:04:19.384Z,101984.38
2022-10-08T06:06:48.246Z,101976.16
2022-10-08T06:09:19.427Z,102005.38
2022-10-08T06:11:50.491Z,101982.31
2022-10-08T06:14:20.306Z,101863.91
2022-10-08T06:16:48.601Z,102020.25
2022-10-08T06:19:17.408Z,102024.59
2022-10-08T06:21:45.775Z,102008.31
2022-10-08T06:24:14.423Z,102013.22
2022-10-08T06:26:44.463Z,102027.25
2022-10-08T06:29:17.214Z,102018.47
2022-10-08T06:31:46.340Z,102013.16
2022-10-08T06:34:15.045Z,102001.34
2022-10-08T06:36:43.373Z,102027.94
2022-10-08T06:39:14.478Z,102044.53
2022-10-08T06:41:43.339Z,102034.69
2022-10-08T06:44:15.868Z,102048.94
2022-10-08T06:46:44.516Z,102055.06
2022-10-08T06:49:13.611Z,102088.75
2022-10-08T06:51:41.920Z,102086.31
2022-10-08T06:54:10.258Z,102046.03
2022-10-08T06:56:39.575Z,102029.38
2022-10-08T06:59:09.044Z,102067.31
2022-10-08T07:01:38.918Z,102101.19
2022-10-08T07:04:07.724Z,102100.84
2022-10-08T07:06:36.378Z,102113.63
2022-10-08T07:09:07.099Z,101919.34
2022-10-08T07:11:35.917Z,102076.50
2022-10-08T07:14:04.338Z,102125.16
2022-10-08T07:16:32.768Z,102134.88
2022-10-08T07:19:02.804Z,102083.19
2022-10-08T07:21:31.796Z,102117.13
2022-10-08T07:24:02.045Z,102089.78
2022-10-08T07:26:34.408Z,102085.22
2022-10-08T07:29:06.238Z,102136.94
2022-10-08T07:31:36.866Z,102059.44
2022-10-08T07:34:11.638Z,102133.50
2022-10-08T07:36:41.188Z,102107.47
2022-10-08T07:39:13.762Z,102148.34
2022-10-08T07:41:42.557Z,102149.06
2022-10-08T07:44:12.830Z,102073.22
2022-10-08T07:46:46.591Z,102128.44
2022-10-08T07:49:18.065Z,102156.28
2022-10-08T07:51:47.151Z,102165.03
2022-10-08T07:54:18.439Z,102147.50
2022-10-08T07:56:47.026Z,102174.25
2022-10-08T07:59:16.209Z,102140.97
2022-10-08T08:01:46.626Z,102169.97
2022-10-08T08:04:16.379Z,102184.28
2022-10-08T08:06:48.607Z,102188.81
2022-10-08T08:09:18.285Z,102123.00
2022-10-08T08:11:47.443Z,102160.56
2022-10-08T08:14:16.043Z,102167.19
2022-10-08T08:16:44.518Z,102138.38
2022-10-08T08:19:12.958Z,102193.69
2022-10-08T08:21:42.633Z,102152.22
2022-10-08T08:24:15.244Z,102200.53
2022-10-08T08:26:45.204Z,102188.41
2022-10-08T08:29:15.439Z,102189.69
2022-10-08T08:31:46.076Z,102116.53
2022-10-08T08:34:16.869Z,102160.72
2022-10-08T08:36:49.555Z,102154.78
2022-10-08T08:39:21.663Z,102186.47
2022-10-08T08:42:14.710Z,102176.28
2022-10-08T08:44:45.459Z,102207.31
2022-10-08T08:47:19.973Z,102212.09
2022-10-08T08:49:53.238Z,102159.00
2022-10-08T08:52:27.813Z,102185.88
2022-10-08T08:54:56.710Z,102194.25
2022-10-08T08:57:37.836Z,102179.56
2022-10-08T09:00:15.039Z,102213.25
2022-10-08T09:02:53.031Z,102210.63
2022-10-08T09:05:23.251Z,102208.34
2022-10-08T09:08:00.346Z,102171.28
2022-10-08T09:10:40.411Z,102189.25
2022-10-08T09:13:15.522Z,102213.91
2022-10-08T09:15:45.673Z,102212.06
2022-10-08T09:18:16.362Z,102179.94
2022-10-08T09:20:45.382Z,102224.44
2022-10-08T09:23:18.877Z,102182.16
2022-10-08T09:25:54.343Z,102180.75
2022-10-08T09:28:46.534Z,102205.13
2022-10-08T09:31:29.542Z,102236.44
2022-10-08T09:34:03.022Z,102238.91
2022-10-08T09:36:35.338Z,102225.84
2022-10-08T09:39:14.324Z,102164.63
2022-10-08T09:41:42.859Z,102217.59
2022-10-08T09:44:21.075Z,102197.25
2022-10-08T09:47:04.916Z,102248.78
2022-10-08T09:49:35.948Z,102252.78
2022-10-08T09:52:17.083Z,102251.63
2022-10-08T09:54:51.269Z,102254.38
2022-10-08T09:57:22.994Z,102240.91
2022-10-08T09:59:56.033Z,102232.75
2022-10-08T10:02:31.976Z,102206.84
2022-10-08T10:05:02.064Z,102250.13
2022-10-08T10:07:42.991Z,102109.28
2022-10-08T10:10:22.102Z,102259.19
2022-10-08T10:12:55.351Z,102259.53
2022-10-08T10:15:33.562Z,102242.16
2022-10-08T10:18:06.191Z,102272.25
2022-10-08T10:20:39.578Z,102264.06
2022-10-08T10:23:16.355Z,102216.19
2022-10-08T10:25:50.984Z,102265.34
2022-10-08T10:28:34.584Z,102276.28
2022-10-08T10:31:09.166Z,102205.19
2022-10-08T10:33:47.619Z,102284.22
2022-10-08T10:36:19.293Z,102244.34
2022-10-08T10:38:56.892Z,102284.66
2022-10-08T10:41:34.055Z,102276.88
2022-10-08T10:44:07.438Z,102255.78
2022-10-08T10:46:41.980Z,102252.06
2022-10-08T10:49:17.426Z,102242.31
2022-10-08T10:52:00.368Z,102236.19
2022-10-08T10:55:09.551Z,102211.31
2022-10-08T10:58:23.766Z,102284.81
2022-10-08T11:01:04.626Z,102271.91
2022-10-08T11:03:43.870Z,102277.31
2022-10-08T11:06:49.898Z,102290.56
2022-10-08T11:09:29.462Z,102299.88
2022-10-08T11:12:04.432Z,102296.63
2022-10-08T11:14:54.815Z,102254.25
2022-10-08T11:17:41.190Z,102271.00
2022-10-08T11:20:39.800Z,102269.06
2022-10-08T11:23:24.905Z,102299.03
2022-10-08T11:26:20.818Z,102259.53
2022-10-08T11:29:00.837Z,102304.94
2022-10-08T11:31:41.130Z,102153.25
2022-10-08T11:34:25.679Z,102303.41
2022-10-08T11:37:12.899Z,102302.97
2022-10-08T11:39:58.375Z,102261.47
2022-10-08T11:42:40.666Z,102274.72
2022-10-08T11:45:34.297Z,102290.63
2022-10-08T11:48:32.893Z,102305.00
2022-10-08T11:51:39.128Z,102217.34
2022-10-08T11:54:19.412Z,102302.41
2022-10-08T11:56:51.709Z,102285.81
2022-10-08T11:59:36.551Z,102307.13
2022-10-08T12:02:20.556Z,102310.75
2022-10-08T12:04:52.762Z,102238.84
2022-10-08T12:07:33.695Z,102301.72
2022-10-08T12:10:32.671Z,102303.34
2022-10-08T12:13:31.247Z,102291.94
2022-10-08T12:16:06.796Z,102292.69
2022-10-08T12:18:53.698Z,102296.44
2022-10-08T12:21:56.513Z,102310.81
2022-10-08T12:24:56.243Z,102281.50
2022-10-08T12:27:40.001Z,102290.50
2022-10-08T12:30:12.693Z,102247.09
2022-10-08T12:32:56.339Z,102312.56
2022-10-08T12:35:30.046Z,102298.34
2022-10-08T12:38:30.666Z,102265.28
2022-10-08T12:41:17.573Z,102310.66
2022-10-08T12:43:54.300Z,102315.06
2022-10-08T12:46:36.481Z,102297.25
2022-10-08T12:49:16.258Z,102321.16
2022-10-08T12:51:53.309Z,102320.16
2022-10-08T12:54:29.785Z,102286.16
2022-10-08T12:56:59.383Z,102273.94
2022-10-08T12:59:31.599Z,102322.75
2022-10-08T13:02:00.421Z,102310.47
2022-10-08T13:04:33.908Z,102304.19
2022-10-08T13:07:25.042Z,102231.50
2022-10-08T13:09:58.412Z,102329.13
2022-10-08T13:12:27.194Z,102291.06
2022-10-08T13:15:05.840Z,102302.56
2022-10-08T13:17:37.064Z,102314.13
2022-10-08T13:20:15.145Z,102257.44
2022-10-08T13:22:43.526Z,102230.00
2022-10-08T13:25:35.707Z,102285.84
2022-10-08T13:28:13.949Z,102345.25
2022-10-08T13:30:44.672Z,102310.56
2022-10-08T13:33:20.044Z,102260.13
2022-10-08T13:35:55.054Z,102294.66
2022-10-08T13:38:27.860Z,102293.84
2022-10-08T13:41:03.988Z,102295.56
2022-10-08T13:43:34.101Z,102335.38
2022-10-08T13:46:02.815Z,102353.13
2022-10-08T13:48:31.117Z,102350.56
2022-10-08T13:51:00.535Z,102305.44
2022-10-08T13:53:28.939Z,102169.97
2022-10-08T13:55:58.629Z,102364.91
2022-10-08T13:58:26.909Z,102354.13
2022-10-08T14:00:55.615Z,102363.63
2022-10-08T14:03:24.181Z,102364.44
2022-10-08T14:05:53.284Z,102359.63
2022-10-08T14:08:26.776Z,102327.31
2022-10-08T14:10:58.111Z,102365.47
2022-10-08T14:13:29.732Z,102292.38
2022-10-08T14:15:58.266Z,102343.09
2022-10-08T14:18:26.673Z,102345.50
2022-10-08T14:20:54.976Z,102357.88
2022-10-08T14:23:23.256Z,102374.53
2022-10-08T14:25:53.669Z,102371.06
2022-10-08T14:28:22.096Z,102373.72
2022-10-08T14:30:51.982Z,102343.38
2022-10-08T14:33:20.288Z,102386.69
2022-10-08T14:35:53.567Z,102370.69
2022-10-08T14:38:21.848Z,102317.31
2022-10-08T14:40:50.387Z,102330.63
2022-10-08T14:43:18.786Z,102391.75
2022-10-08T14:45:47.101Z,102367.38
2022-10-08T14:48:16.761Z,102378.13
2022-10-08T14:50:45.061Z,102361.16
2022-10-08T14:53:13.404Z,102318.31
2022-10-08T14:56:00.836Z,102234.16
2022-10-08T14:58:30.193Z,102306.44
2022-10-08T15:00:59.609Z,102366.78
2022-10-08T15:03:29.352Z,102309.22
2022-10-08T15:06:01.003Z,102387.03
2022-10-08T15:08:29.645Z,102396.31
2022-10-08T15:10:58.120Z,102397.03
2022-10-08T15:13:26.369Z,102364.38
2022-10-08T15:15:54.857Z,102395.28
2022-10-08T15:18:23.221Z,102260.03
2022-10-08T15:20:57.635Z,102353.16
2022-10-08T15:23:27.690Z,102368.25
2022-10-08T15:25:58.452Z,102350.53
2022-10-08T15:28:28.413Z,102397.47
2022-10-08T15:31:08.708Z,102360.06
2022-10-08T15:33:40.388Z,102309.66
2022-10-08T15:36:20.477Z,102388.72
2022-10-08T15:38:55.050Z,102364.50
2022-10-08T15:41:23.398Z,102292.19
2022-10-08T15:43:51.734Z,102409.75
2022-10-08T15:46:22.619Z,102347.38
2022-10-08T15:48:55.855Z,102377.78
2022-10-08T15:51:26.374Z,102425.84
2022-10-08T15:53:54.729Z,102428.75
2022-10-08T15:56:23.647Z,102378.59
2022-10-08T15:58:52.168Z,102429.41
2022-10-08T16:01:24.479Z,102353.13
2022-10-08T16:03:55.412Z,102436.41
2022-10-08T16:06:27.953Z,102392.34
2022-10-08T16:08:58.948Z,102408.13
2022-10-08T16:11:30.278Z,102365.22
2022-10-08T16:14:02.934Z,102425.00
2022-10-08T16:16:31.736Z,102450.59
2022-10-08T16:19:03.130Z,102446.53
2022-10-08T16:21:34.482Z,102385.72
2022-10-08T16:24:03.510Z,102419.28
2022-10-08T16:26:33.771Z,102459.06
2022-10-08T16:29:06.315Z,102430.81
2022-10-08T16:31:37.350Z,102365.16
2022-10-08T16:34:08.942Z,102430.22
2022-10-08T16:36:39.493Z,102465.81
2022-10-08T16:39:09.067Z,102418.56
2022-10-08T16:41:38.242Z,102468.38
2022-10-08T16:44:12.421Z,102468.53
2022-10-08T16:46:44.555Z,102437.72
2022-10-08T16:49:22.803Z,102379.69
2022-10-08T16:51:55.192Z,102486.13
2022-10-08T16:54:23.615Z,102482.38
2022-10-08T16:56:52.271Z,102423.22
2022-10-08T16:59:22.951Z,102462.69
2022-10-08T17:01:54.235Z,102454.53
2022-10-08T17:04:25.114Z,102497.22
2022-10-08T17:06:55.205Z,102443.47
2022-10-08T17:09:24.551Z,102493.66
2022-10-08T17:11:53.098Z,102382.50
2022-10-08T17:14:21.467Z,102517.94
2022-10-08T17:16:50.784Z,102489.22
2022-10-08T17:19:19.950Z,102491.00
2022-10-08T17:21:48.295Z,102481.44
2022-10-08T17:24:18.015Z,102467.91
2022-10-08T17:26:46.402Z,102464.38
2022-10-08T17:29:14.749Z,102529.78
2022-10-08T17:31:43.625Z,102533.16
2022-10-08T17:34:12.833Z,102502.66
2022-10-08T17:36:44.175Z,102500.72
2022-10-08T17:39:15.224Z,102500.63
2022-10-08T17:41:45.336Z,102255.66
2022-10-08T17:44:14.058Z,102501.44
2022-10-08T17:46:46.091Z,102501.03
2022-10-08T17:49:15.966Z,102509.16
2022-10-08T17:51:44.688Z,102541.63
2022-10-08T17:54:16.181Z,102513.81
2022-10-08T17:56:46.198Z,102536.28
2022-10-08T17:59:16.238Z,102351.81
2022-10-08T18:01:46.051Z,102528.28
2022-10-08T18:04:17.182Z,102528.03
2022-10-08T18:06:47.858Z,102513.63
2022-10-08T18:09:19.463Z,102497.25
2022-10-08T18:11:53.380Z,102526.56
2022-10-08T18:14:22.536Z,102551.03
2022-10-08T18:16:50.936Z,102572.22
2022-10-08T18:19:19.871Z,102528.63
2022-10-08T18:21:48.178Z,102550.22
2022-10-08T18:24:17.123Z,102577.91
2022-10-08T18:26:45.806Z,102531.16
2022-10-08T18:29:16.032Z,102517.44
2022-10-08T18:31:46.619Z,102556.09
2022-10-08T18:34:17.980Z,102444.38
2022-10-08T18:36:47.467Z,102537.03
2022-10-08T18:39:18.248Z,102583.22
2022-10-08T18:41:49.174Z,102462.31
2022-10-08T18:44:21.700Z,102536.16
2022-10-08T18:46:51.231Z,102552.94
2022-10-08T18:49:23.881Z,102606.38
2022-10-08T18:51:52.304Z,102613.31
2022-10-08T18:54:20.986Z,102504.84
2022-10-08T18:56:49.273Z,102593.16
2022-10-08T18:59:19.756Z,102559.91
2022-10-08T19:01:49.274Z,102457.94
2022-10-08T19:04:21.064Z,102528.97
2022-10-08T19:06:52.172Z,102558.38
2022-10-08T19:09:21.606Z,102611.94
2022-10-08T19:11:52.344Z,102575.97
2022-10-08T19:14:23.906Z,102531.84
2022-10-08T19:16:52.562Z,102581.59
2022-10-08T19:19:22.825Z,102574.97
2022-10-08T19:21:54.118Z,102633.91
2022-10-08T19:24:25.109Z,102617.63
2022-10-08T19:26:55.256Z,102534.09
2022-10-08T19:29:29.089Z,102634.06
2022-10-08T19:31:57.729Z,102553.34
2022-10-08T19:34:28.689Z,102642.53
2022-10-08T19:36:57.078Z,102618.13
2022-10-08T19:39:29.022Z,102649.38
2022-10-08T19:41:57.362Z,102642.88
2022-10-08T19:44:27.364Z,102650.84
2022-10-08T19:46:55.791Z,102530.94
2022-10-08T19:49:24.366Z,102639.94
2022-10-08T19:51:54.135Z,102588.56
2022-10-08T19:54:22.628Z,102580.38
2022-10-08T19:56:50.946Z,102633.03
2022-10-08T19:59:19.247Z,102651.66
2022-10-08T20:01:49.184Z,102504.22
2022-10-08T20:04:17.651Z,102630.34
2022-10-08T20:06:46.116Z,102660.75
2022-10-08T20:09:15.486Z,102603.22
2022-10-08T20:11:46.056Z,102627.06
2022-10-08T20:14:16.072Z,102638.81
2022-10-08T20:16:45.107Z,102636.56
2022-10-08T20:19:20.640Z,102647.03
2022-10-08T20:21:50.781Z,102639.09
2022-10-08T20:24:20.088Z,102629.13
2022-10-08T20:26:49.431Z,102590.78
2022-10-08T20:29:20.417Z,102611.31
2022-10-08T20:31:54.124Z,102666.78
2022-10-08T20:34:26.975Z,102522.00
2022-10-08T20:36:55.642Z,102646.56
2022-10-08T20:39:24.288Z,102674.19
2022-10-08T20:41:53.649Z,102626.81
2022-10-08T20:44:22.126Z,102653.72
2022-10-08T20:46:51.911Z,102638.03
2022-10-08T20:49:20.984Z,102620.22
2022-10-08T20:51:50.697Z,102668.47
2022-10-08T20:54:19.388Z,102668.41
2022-10-08T20:56:47.787Z,102559.66
2022-10-08T20:59:18.608Z,102667.78
2022-10-08T21:01:47.862Z,102548.97
2022-10-08T21:04:16.396Z,102670.03
2022-10-08T21:06:46.812Z,102664.53
2022-10-08T21:09:19.391Z,102688.59
2022-10-08T21:11:48.823Z,102657.13
2022-10-08T21:14:19.972Z,102684.88
2022-10-08T21:16:48.347Z,102683.00
2022-10-08T21:19:21.439Z,102657.72
2022-10-08T21:21:50.126Z,102687.41
2022-10-08T21:24:20.283Z,102689.94
2022-10-08T21:26:49.039Z,102684.59
2022-10-08T21:29:17.254Z,102690.38
2022-10-08T21:31:45.626Z,102690.09
2022-10-08T21:34:26.062Z,102642.22
2022-10-08T21:36:55.740Z,102563.66
2022-10-08T21:42:09.799Z,102479.50
2022-10-08T21:44:38.437Z,102415.19
2022-10-08T21:47:07.020Z,102355.28
2022-10-08T21:49:35.602Z,102505.97
2022-10-08T21:52:09.876Z,102567.44
2022-10-08T21:54:39.631Z,102484.91
2022-10-08T21:57:08.084Z,102545.22
2022-10-08T21:59:36.669Z,102514.84
2022-10-08T22:02:05.146Z,102690.13
2022-10-08T22:04:33.682Z,102531.56
2022-10-08T22:07:04.622Z,102512.78
2022-10-08T22:09:35.061Z,102616.63
2022-10-08T22:12:05.756Z,102634.63
2022-10-08T22:14:34.181Z,102453.00
2022-10-08T22:17:02.595Z,102543.19
2022-10-08T22:19:31.110Z,102498.53
2022-10-08T22:21:59.641Z,102357.66
2022-10-08T22:24:28.764Z,102688.00
2022-10-08T22:26:57.210Z,102645.81
2022-10-08T22:29:27.084Z,102661.78
2022-10-08T22:31:55.544Z,102479.28
2022-10-08T22:34:24.014Z,102361.91
2022-10-08T22:36:52.510Z,102363.38
2022-10-08T22:39:21.280Z,102683.97
2022-10-08T22:41:49.698Z,102620.66
2022-10-08T22:44:18.182Z,102390.06
2022-10-08T22:46:47.983Z,102569.59
2022-10-08T22:49:16.657Z,102482.56
2022-10-08T22:51:45.082Z,102352.34
2022-10-08T22:54:13.720Z,102675.47
2022-10-08T22:56:42.574Z,102495.16
2022-10-08T22:59:11.719Z,102493.91
2022-10-08T23:01:40.174Z,102512.31
2022-10-08T23:04:10.122Z,102520.34
2022-10-08T23:06:38.711Z,102611.28
2022-10-08T23:09:12.013Z,102371.50
2022-10-08T23:11:40.746Z,102443.63
2022-10-08T23:14:09.212Z,102676.59
2022-10-08T23:16:37.751Z,102668.94
2022-10-08T23:19:10.047Z,102465.75
2022-10-08T23:21:39.732Z,102637.25
2022-10-08T23:24:10.190Z,102328.47
2022-10-08T23:26:38.606Z,102369.47
2022-10-08T23:29:07.062Z,102354.16
2022-10-08T23:31:37.824Z,102551.63
2022-10-08T23:34:07.196Z,102373.34
2022-10-08T23:36:39.901Z,102330.25
2022-10-08T23:39:11.995Z,102631.06
2022-10-08T23:41:40.632Z,102505.97
2022-10-08T23:44:11.239Z,102406.25
2022-10-08T23:46:39.565Z,102519.84
2022-10-08T23:49:08.964Z,102616.06
2022-10-08T23:51:38.914Z,102561.22
2022-10-08T23:54:07.569Z,102674.56
2022-10-08T23:56:36.280Z,102668.38
2022-10-08T23:59:04.779Z,102673.28
